createdAt,value
2018-06-21T00:01:18.734Z,95271.32
2018-06-21T00:03:47.484Z,95268.13
2018-06-21T00:06:16.308Z,95267.08
2018-06-21T00:08:45.117Z,95274.15
2018-06-21T00:11:13.833Z,95268.98
2018-06-21T00:13:42.575Z,95278.58
2018-06-21T00:16:11.321Z,95274.84
2018-06-21T00:18:40.125Z,95277.33
2018-06-21T00:21:09.675Z,95276.85
2018-06-21T00:23:38.370Z,95282.22
2018-06-21T00:26:07.174Z,95286.50
2018-06-21T00:28:35.909Z,95282.46
2018-06-21T00:31:04.698Z,95281.57
2018-06-21T00:33:33.450Z,95285.48
2018-06-21T00:36:02.234Z,95283.87
2018-06-21T00:38:30.972Z,95281.73
2018-06-21T00:40:59.752Z,95278.72
2018-06-21T00:43:28.499Z,95276.41
2018-06-21T00:45:57.321Z,95274.84
2018-06-21T00:48:26.107Z,95271.92
2018-06-21T00:50:54.866Z,95270.27
2018-06-21T00:53:23.609Z,95269.15
2018-06-21T00:56:03.475Z,95266.44
2018-06-21T00:58:32.877Z,95267.13
2018-06-21T01:01:01.623Z,95265.70
2018-06-21T01:03:30.444Z,95269.89
2018-06-21T01:05:59.233Z,95272.46
2018-06-21T01:08:27.968Z,95266.76
2018-06-21T01:10:56.756Z,95266.15
2018-06-21T01:13:25.498Z,95271.42
2018-06-21T01:15:54.250Z,95275.69
2018-06-21T01:18:23.006Z,95275.70
2018-06-21T01:20:51.788Z,95268.05
2018-06-21T01:23:20.511Z,95277.17
2018-06-21T01:25:49.322Z,95272.13
2018-06-21T01:28:18.063Z,95277.22
2018-06-21T01:30:46.884Z,95278.08
2018-06-21T01:33:15.633Z,95278.73
2018-06-21T01:35:44.419Z,95276.88
2018-06-21T01:38:13.192Z,95278.45
2018-06-21T01:40:41.998Z,95276.60
2018-06-21T01:43:10.742Z,95272.36
2018-06-21T01:45:39.527Z,95271.55
2018-06-21T01:48:08.515Z,95270.89
2018-06-21T01:50:37.259Z,95266.81
2018-06-21T01:53:06.451Z,95263.05
2018-06-21T01:55:35.211Z,95257.88
2018-06-21T01:58:04.035Z,95256.78
2018-06-21T02:00:32.827Z,95258.30
2018-06-21T02:03:01.826Z,95259.34
2018-06-21T02:05:30.573Z,95254.26
2018-06-21T02:07:59.381Z,95248.89
2018-06-21T02:10:28.274Z,95248.61
2018-06-21T02:12:57.009Z,95248.89
2018-06-21T02:15:25.840Z,95254.41
2018-06-21T02:17:55.471Z,95264.23
2018-06-21T02:20:24.216Z,95265.69
2018-06-21T02:22:52.978Z,95262.94
2018-06-21T02:25:21.753Z,95260.75
2018-06-21T02:27:50.526Z,95263.41
2018-06-21T02:30:19.330Z,95265.50
2018-06-21T02:32:48.067Z,95263.45
2018-06-21T02:35:16.815Z,95262.37
2018-06-21T02:37:45.654Z,95257.52
2018-06-21T02:40:14.420Z,95256.91
2018-06-21T02:42:43.155Z,95261.06
2018-06-21T02:45:11.927Z,95255.18
2018-06-21T02:47:40.720Z,95254.07
2018-06-21T02:50:09.449Z,95253.69
2018-06-21T02:52:38.197Z,95252.86
2018-06-21T02:55:07.374Z,95254.20
2018-06-21T02:57:36.142Z,95259.92
2018-06-21T03:00:08.102Z,95264.30
2018-06-21T03:02:36.888Z,95259.89
2018-06-21T03:05:05.750Z,95255.53
2018-06-21T03:07:34.572Z,95257.99
2018-06-21T03:10:04.087Z,95255.62
2018-06-21T03:12:32.884Z,95259.04
2018-06-21T03:15:01.604Z,95252.95
2018-06-21T03:17:30.332Z,95256.16
2018-06-21T03:19:59.058Z,95253.73
2018-06-21T03:22:27.798Z,95252.06
2018-06-21T03:24:56.579Z,95249.07
2018-06-21T03:27:25.934Z,95255.15
2018-06-21T03:29:54.712Z,95258.38
2018-06-21T03:32:23.484Z,95254.81
2018-06-21T03:34:52.194Z,95251.73
2018-06-21T03:37:20.977Z,95245.41
2018-06-21T03:39:49.707Z,95246.89
2018-06-21T03:42:18.431Z,95250.70
2018-06-21T03:44:47.156Z,95254.31
2018-06-21T03:47:15.938Z,95253.35
2018-06-21T03:49:44.705Z,95258.20
2018-06-21T03:52:13.539Z,95250.79
2018-06-21T03:54:42.477Z,95245.84
2018-06-21T03:57:11.231Z,95247.59
2018-06-21T03:59:39.971Z,95239.16
2018-06-21T04:02:08.743Z,95243.97
2018-06-21T04:04:37.478Z,95242.48
2018-06-21T04:07:06.311Z,95238.08
2018-06-21T04:09:35.097Z,95232.50
2018-06-21T04:12:03.869Z,95229.56
2018-06-21T04:14:32.673Z,95234.88
2018-06-21T04:17:01.427Z,95237.55
2018-06-21T04:19:30.319Z,95241.55
2018-06-21T04:21:59.105Z,95241.09
2018-06-21T04:24:28.171Z,95243.27
2018-06-21T04:26:56.956Z,95239.27
2018-06-21T04:29:25.758Z,95238.26
2018-06-21T04:31:54.712Z,95243.45
2018-06-21T04:34:23.502Z,95244.92
2018-06-21T04:36:52.249Z,95235.45
2018-06-21T04:39:20.982Z,95230.80
2018-06-21T04:41:49.763Z,95233.55
2018-06-21T04:44:18.511Z,95235.80
2018-06-21T04:46:47.312Z,95232.09
2018-06-21T04:49:16.158Z,95235.73
2018-06-21T04:51:44.951Z,95229.17
2018-06-21T04:54:13.718Z,95239.48
2018-06-21T04:56:42.442Z,95237.67
2018-06-21T04:59:11.191Z,95231.56
2018-06-21T05:01:39.929Z,95230.39
2018-06-21T05:04:08.680Z,95232.12
2018-06-21T05:06:37.505Z,95230.67
2018-06-21T05:09:10.531Z,95231.25
2018-06-21T05:11:39.263Z,95228.51
2018-06-21T05:14:08.439Z,95230.48
2018-06-21T05:16:37.192Z,95229.25
2018-06-21T05:19:05.956Z,95227.16
2018-06-21T05:21:34.848Z,95228.83
2018-06-21T05:24:03.567Z,95230.89
2018-06-21T05:26:32.319Z,95224.02
2018-06-21T05:29:01.519Z,95216.84
2018-06-21T05:31:30.510Z,95214.36
2018-06-21T05:33:59.351Z,95220.05
2018-06-21T05:36:28.119Z,95221.84
2018-06-21T05:38:56.911Z,95215.16
2018-06-21T05:41:25.754Z,95218.91
2018-06-21T05:43:54.511Z,95211.27
2018-06-21T05:46:23.285Z,95205.70
2018-06-21T05:48:52.135Z,95205.66
2018-06-21T05:51:21.116Z,95199.24
2018-06-21T05:53:49.878Z,95206.49
2018-06-21T05:56:19.174Z,95200.63
2018-06-21T05:58:47.941Z,95201.05
2018-06-21T06:01:16.783Z,95205.87
2018-06-21T06:03:46.943Z,95206.23
2018-06-21T06:06:15.791Z,95209.53
2018-06-21T06:08:44.534Z,95206.09
2018-06-21T06:11:13.331Z,95211.35
2018-06-21T06:13:42.185Z,95206.81
2018-06-21T06:16:10.947Z,95203.71
2018-06-21T06:18:39.765Z,95209.58
2018-06-21T06:21:08.531Z,95208.09
2018-06-21T06:23:37.279Z,95199.08
2018-06-21T06:26:06.043Z,95202.56
2018-06-21T06:28:35.152Z,95201.98
2018-06-21T06:31:04.147Z,95195.27
2018-06-21T06:33:32.928Z,95189.89
2018-06-21T06:36:01.675Z,95192.52
2018-06-21T06:38:30.455Z,95192.21
2018-06-21T06:40:59.196Z,95191.33
2018-06-21T06:43:28.262Z,95187.86
2018-06-21T06:45:57.055Z,95191.82
2018-06-21T06:48:26.532Z,95189.55
2018-06-21T06:50:55.971Z,95184.37
2018-06-21T06:53:24.760Z,95183.81
2018-06-21T06:55:53.708Z,95184.16
2018-06-21T06:58:22.429Z,95186.50
2018-06-21T07:00:51.258Z,95182.22
2018-06-21T07:03:20.078Z,95182.22
2018-06-21T07:05:48.854Z,95177.74
2018-06-21T07:08:19.578Z,95173.33
2018-06-21T07:10:48.499Z,95169.52
2018-06-21T07:13:17.250Z,95168.55
2018-06-21T07:15:46.085Z,95167.98
2018-06-21T07:18:14.860Z,95169.75
2018-06-21T07:20:43.715Z,95169.47
2018-06-21T07:23:12.478Z,95167.12
2018-06-21T07:25:41.296Z,95161.36
2018-06-21T07:28:10.007Z,95160.64
2018-06-21T07:30:38.823Z,95161.98
2018-06-21T07:33:07.559Z,95159.47
2018-06-21T07:35:36.470Z,95152.61
2018-06-21T07:38:05.387Z,95149.50
2018-06-21T07:40:34.128Z,95150.43
2018-06-21T07:43:02.905Z,95152.03
2018-06-21T07:45:31.703Z,95151.02
2018-06-21T07:48:00.543Z,95143.88
2018-06-21T07:50:29.512Z,95146.56
2018-06-21T07:52:58.319Z,95142.42
2018-06-21T07:55:27.160Z,95137.03
2018-06-21T07:57:55.944Z,95137.27
2018-06-21T08:00:31.447Z,95135.93
2018-06-21T08:03:00.246Z,95134.53
2018-06-21T08:05:29.000Z,95131.77
2018-06-21T08:07:57.749Z,95131.97
2018-06-21T08:10:26.510Z,95127.98
2018-06-21T08:12:55.318Z,95129.90
2018-06-21T08:15:24.286Z,95139.12
2018-06-21T08:17:53.047Z,95129.12
2018-06-21T08:20:21.932Z,95125.64
2018-06-21T08:22:50.922Z,95121.17
2018-06-21T08:25:19.737Z,95120.32
2018-06-21T08:27:55.109Z,95119.48
2018-06-21T08:30:23.949Z,95117.27
2018-06-21T08:32:52.713Z,95109.08
2018-06-21T08:35:21.464Z,95111.07
2018-06-21T08:37:50.235Z,95118.39
2018-06-21T08:40:19.111Z,95119.31
2018-06-21T08:42:52.550Z,95117.05
2018-06-21T08:45:21.312Z,95110.31
2018-06-21T08:47:50.083Z,95112.84
2018-06-21T08:50:18.878Z,95110.61
2018-06-21T08:52:47.716Z,95102.78
2018-06-21T08:55:16.511Z,95096.34
2018-06-21T08:57:45.281Z,95094.89
2018-06-21T09:00:14.400Z,95089.32
2018-06-21T09:02:43.130Z,95085.86
2018-06-21T09:05:11.899Z,95085.58
2018-06-21T09:07:40.654Z,95092.59
2018-06-21T09:10:09.722Z,95078.92
2018-06-21T09:12:39.214Z,95082.88
2018-06-21T09:15:09.743Z,95087.45
2018-06-21T09:17:38.506Z,95074.00
2018-06-21T09:20:07.267Z,95070.07
2018-06-21T09:22:36.065Z,95062.68
2018-06-21T09:25:04.859Z,95057.59
2018-06-21T09:27:33.654Z,95051.22
2018-06-21T09:30:03.907Z,95054.64
2018-06-21T09:32:39.402Z,95051.11
2018-06-21T09:35:08.161Z,95052.94
2018-06-21T09:37:42.047Z,95047.36
2018-06-21T09:40:16.134Z,95036.51
2018-06-21T09:42:50.027Z,95029.23
2018-06-21T09:45:23.871Z,95022.96
2018-06-21T09:47:57.793Z,95025.54
2018-06-21T09:50:26.614Z,95024.60
2018-06-21T09:52:55.380Z,95029.50
2018-06-21T09:55:24.125Z,95021.54
2018-06-21T09:57:53.740Z,95023.72
2018-06-21T10:00:27.804Z,95016.56
2018-06-21T10:02:56.569Z,95016.30
2018-06-21T10:05:25.372Z,95006.91
2018-06-21T10:07:54.180Z,95009.97
2018-06-21T10:10:22.975Z,95004.52
2018-06-21T10:12:51.752Z,95003.16
2018-06-21T10:15:20.529Z,95001.63
2018-06-21T10:17:49.332Z,95007.28
2018-06-21T10:20:18.074Z,95001.54
2018-06-21T10:22:46.839Z,95002.35
2018-06-21T10:25:22.358Z,95006.30
2018-06-21T10:27:51.105Z,94997.83
2018-06-21T10:30:19.919Z,94995.09
2018-06-21T10:32:48.692Z,94994.89
2018-06-21T10:35:17.469Z,94995.61
2018-06-21T10:37:46.192Z,94989.98
2018-06-21T10:40:15.070Z,94995.56
2018-06-21T10:42:43.784Z,94992.86
2018-06-21T10:45:12.507Z,94988.06
2018-06-21T10:47:41.231Z,94987.19
2018-06-21T10:50:10.007Z,94976.38
2018-06-21T10:52:38.790Z,94977.92
2018-06-21T10:55:07.542Z,94978.41
2018-06-21T10:57:36.813Z,94974.68
2018-06-21T11:00:06.589Z,94965.73
2018-06-21T11:02:35.365Z,94977.70
2018-06-21T11:05:04.683Z,94987.89
2018-06-21T11:07:33.420Z,94994.34
2018-06-21T11:10:02.300Z,95000.91
2018-06-21T11:12:31.092Z,94999.84
2018-06-21T11:14:59.867Z,95010.98
2018-06-21T11:17:28.623Z,95011.31
2018-06-21T11:19:57.386Z,95009.28
2018-06-21T11:22:26.200Z,94999.73
2018-06-21T11:24:55.770Z,94999.98
2018-06-21T11:27:24.556Z,94996.08
2018-06-21T11:29:53.437Z,95001.52
2018-06-21T11:32:22.202Z,95008.95
2018-06-21T11:34:51.042Z,94999.23
2018-06-21T11:37:26.365Z,95002.11
2018-06-21T11:39:55.179Z,94990.69
2018-06-21T11:42:23.978Z,94981.22
2018-06-21T11:44:52.765Z,94974.45
2018-06-21T11:47:21.550Z,94966.91
2018-06-21T11:49:50.320Z,94955.80
2018-06-21T11:52:19.103Z,94957.00
2018-06-21T11:54:47.851Z,94948.30
2018-06-21T11:57:16.610Z,94950.38
2018-06-21T11:59:45.398Z,94947.17
2018-06-21T12:02:14.222Z,94959.98
2018-06-21T12:04:43.739Z,94961.82
2018-06-21T12:07:12.762Z,94959.09
2018-06-21T12:09:41.528Z,94956.88
2018-06-21T12:12:10.350Z,94945.75
2018-06-21T12:14:39.650Z,94948.05
2018-06-21T12:17:09.209Z,94940.56
2018-06-21T12:19:37.931Z,94935.94
2018-06-21T12:22:06.839Z,94937.74
2018-06-21T12:24:35.652Z,94935.31
2018-06-21T12:27:05.115Z,94932.27
2018-06-21T12:29:34.880Z,94934.07
2018-06-21T12:32:03.625Z,94931.48
2018-06-21T12:34:32.511Z,94935.39
2018-06-21T12:37:01.256Z,94931.92
2018-06-21T12:39:30.035Z,94932.59
2018-06-21T12:41:58.811Z,94938.77
2018-06-21T12:44:27.507Z,94945.42
2018-06-21T12:46:56.202Z,94938.48
2018-06-21T12:49:25.006Z,94941.80
2018-06-21T12:51:53.773Z,94937.12
2018-06-21T12:54:22.548Z,94933.39
2018-06-21T12:56:51.288Z,94929.11
2018-06-21T12:59:20.748Z,94918.64
2018-06-21T13:01:49.547Z,94924.37
2018-06-21T13:04:18.320Z,94911.70
2018-06-21T13:06:47.062Z,94905.77
2018-06-21T13:09:27.735Z,94911.66
2018-06-21T13:12:35.834Z,94913.17
2018-06-21T13:15:05.697Z,94901.40
2018-06-21T13:17:34.480Z,94899.77
2018-06-21T13:20:04.275Z,94894.76
2018-06-21T13:22:33.040Z,94900.13
2018-06-21T13:25:02.191Z,94896.39
2018-06-21T13:27:30.852Z,94883.82
2018-06-21T13:29:59.569Z,94877.27
2018-06-21T13:32:28.253Z,94874.84
2018-06-21T13:34:56.970Z,94872.41
2018-06-21T13:37:27.076Z,94877.64
2018-06-21T13:39:56.201Z,94876.22
2018-06-21T13:42:24.917Z,94881.88
2018-06-21T13:44:53.684Z,94887.86
2018-06-21T13:47:22.450Z,94878.38
2018-06-21T13:49:51.242Z,94889.63
2018-06-21T13:52:20.025Z,94889.77
2018-06-21T13:54:48.890Z,94893.19
2018-06-21T13:57:17.768Z,94887.14
2018-06-21T13:59:46.781Z,94884.81
2018-06-21T14:02:15.697Z,94882.53
2018-06-21T14:04:45.248Z,94877.17
2018-06-21T14:07:13.966Z,94874.38
2018-06-21T14:09:42.694Z,94872.23
2018-06-21T14:12:11.796Z,94866.53
2018-06-21T14:14:40.593Z,94867.66
2018-06-21T14:17:09.470Z,94865.98
2018-06-21T14:19:38.185Z,94865.50
2018-06-21T14:22:07.019Z,94854.58
2018-06-21T14:24:35.858Z,94847.77
2018-06-21T14:27:04.664Z,94857.09
2018-06-21T14:29:33.457Z,94849.50
2018-06-21T14:32:02.246Z,94852.28
2018-06-21T14:34:31.009Z,94852.41
2018-06-21T14:37:00.028Z,94851.81
2018-06-21T14:39:28.718Z,94862.88
2018-06-21T14:41:57.487Z,94864.23
2018-06-21T14:44:26.304Z,94867.42
2018-06-21T14:46:55.908Z,94869.35
2018-06-21T14:49:24.751Z,94870.52
2018-06-21T14:51:53.532Z,94865.91
2018-06-21T14:54:22.291Z,94865.76
2018-06-21T14:56:51.083Z,94869.17
2018-06-21T14:59:19.930Z,94868.48
2018-06-21T15:01:48.818Z,94874.84
2018-06-21T15:04:17.579Z,94877.38
2018-06-21T15:06:46.367Z,94884.00
2018-06-21T15:09:15.104Z,94879.50
2018-06-21T15:11:43.880Z,94873.16
2018-06-21T15:14:12.628Z,94873.54
2018-06-21T15:16:41.399Z,94871.84
2018-06-21T15:19:10.117Z,94859.61
2018-06-21T15:21:38.855Z,94852.88
2018-06-21T15:24:08.483Z,94853.80
2018-06-21T15:26:37.207Z,94844.80
2018-06-21T15:29:05.935Z,94843.92
2018-06-21T15:31:34.937Z,94838.23
2018-06-21T15:34:03.735Z,94831.71
2018-06-21T15:36:32.482Z,94826.20
2018-06-21T15:39:02.301Z,94819.61
2018-06-21T15:41:31.065Z,94816.00
2018-06-21T15:43:59.830Z,94806.45
2018-06-21T15:46:29.210Z,94802.55
2018-06-21T15:48:58.019Z,94788.30
2018-06-21T15:51:26.817Z,94789.80
2018-06-21T15:53:55.531Z,94783.52
2018-06-21T15:56:24.328Z,94786.44
2018-06-21T15:58:53.258Z,94788.91
2018-06-21T16:01:22.033Z,94797.33
2018-06-21T16:03:50.850Z,94795.82
2018-06-21T16:06:19.578Z,94803.05
2018-06-21T16:08:48.538Z,94813.47
2018-06-21T16:11:17.460Z,94813.77
2018-06-21T16:13:46.222Z,94810.98
2018-06-21T16:16:14.937Z,94825.11
2018-06-21T16:18:43.688Z,94824.27
2018-06-21T16:21:19.002Z,94822.42
2018-06-21T16:23:47.771Z,94838.34
2018-06-21T16:26:16.600Z,94843.80
2018-06-21T16:28:45.335Z,94854.20
2018-06-21T16:31:14.075Z,94876.30
2018-06-21T16:33:42.886Z,94876.64
2018-06-21T16:36:11.776Z,94881.16
2018-06-21T16:38:41.559Z,94882.14
2018-06-21T16:41:10.416Z,94882.13
2018-06-21T16:43:39.157Z,94876.45
2018-06-21T16:46:08.008Z,94883.22
2018-06-21T16:48:36.731Z,94890.28
2018-06-21T16:51:05.763Z,94885.22
2018-06-21T16:53:34.593Z,94887.41
2018-06-21T16:56:03.334Z,94884.84
2018-06-21T16:58:32.036Z,94884.38
2018-06-21T17:01:00.750Z,94887.34
2018-06-21T17:03:29.836Z,94890.35
2018-06-21T17:05:58.859Z,94891.27
2018-06-21T17:08:27.600Z,94892.45
2018-06-21T17:10:56.362Z,94884.33
2018-06-21T17:13:25.091Z,94878.25
2018-06-21T17:15:53.832Z,94870.56
2018-06-21T17:18:23.120Z,94868.52
2018-06-21T17:20:52.082Z,94865.92
2018-06-21T17:23:20.804Z,94863.29
2018-06-21T17:25:49.536Z,94866.59
2018-06-21T17:28:18.265Z,94864.27
2018-06-21T17:30:47.137Z,94870.23
2018-06-21T17:33:15.962Z,94870.52
2018-06-21T17:35:44.714Z,94872.13
2018-06-21T17:38:13.458Z,94860.39
2018-06-21T17:40:42.198Z,94860.20
2018-06-21T17:43:13.345Z,94859.36
2018-06-21T17:45:42.387Z,94856.19
2018-06-21T17:48:11.192Z,94849.78
2018-06-21T17:50:40.056Z,94845.81
2018-06-21T17:53:08.776Z,94847.11
2018-06-21T17:55:37.510Z,94847.36
2018-06-21T17:58:06.353Z,94844.55
2018-06-21T18:00:35.267Z,94844.25
2018-06-21T18:03:04.032Z,94842.85
2018-06-21T18:05:32.942Z,94840.52
2018-06-21T18:08:01.839Z,94844.34
2018-06-21T18:10:30.760Z,94836.13
2018-06-21T18:13:06.218Z,94839.11
2018-06-21T18:15:34.988Z,94834.53
2018-06-21T18:18:03.824Z,94845.28
2018-06-21T18:20:32.614Z,94841.00
2018-06-21T18:23:01.617Z,94838.62
2018-06-21T18:25:30.348Z,94839.42
2018-06-21T18:28:00.146Z,94845.59
2018-06-21T18:30:28.941Z,94840.25
2018-06-21T18:32:57.789Z,94839.19
2018-06-21T18:35:26.574Z,94834.63
2018-06-21T18:37:55.528Z,94838.42
2018-06-21T18:40:24.219Z,94841.16
2018-06-21T18:42:53.029Z,94850.31
2018-06-21T18:45:21.778Z,94855.41
2018-06-21T18:47:50.560Z,94858.13
2018-06-21T18:50:19.971Z,94859.01
2018-06-21T18:52:48.866Z,94867.60
2018-06-21T18:55:17.719Z,94875.62
2018-06-21T18:57:47.148Z,94875.66
2018-06-21T19:00:17.140Z,94875.95
2018-06-21T19:02:46.468Z,94873.28
2018-06-21T19:05:16.127Z,94874.11
2018-06-21T19:07:44.866Z,94874.64
2018-06-21T19:10:18.809Z,94876.51
2018-06-21T19:12:47.580Z,94882.41
2018-06-21T19:15:16.378Z,94883.20
2018-06-21T19:17:45.108Z,94885.63
2018-06-21T19:20:13.841Z,94886.69
2018-06-21T19:22:42.669Z,94895.78
2018-06-21T19:25:11.429Z,94897.39
2018-06-21T19:27:40.890Z,94896.56
2018-06-21T19:30:09.779Z,94896.32
2018-06-21T19:32:41.433Z,94893.38
2018-06-21T19:35:10.178Z,94895.78
2018-06-21T19:37:38.982Z,94892.05
2018-06-21T19:40:07.782Z,94899.50
2018-06-21T19:42:36.532Z,94901.66
2018-06-21T19:45:06.118Z,94899.00
2018-06-21T19:47:34.862Z,94903.55
2018-06-21T19:50:03.643Z,94898.98
2018-06-21T19:52:32.384Z,94903.27
2018-06-21T19:55:01.161Z,94902.17
2018-06-21T19:57:30.251Z,94902.16
2018-06-21T19:59:58.995Z,94895.52
2018-06-21T20:03:03.549Z,94897.37
2018-06-21T20:05:32.743Z,94889.90
2018-06-21T20:08:01.440Z,94895.23
2018-06-21T20:10:30.214Z,94891.48
2018-06-21T20:12:58.994Z,94890.43
2018-06-21T20:15:27.716Z,94888.56
2018-06-21T20:17:56.496Z,94889.61
2018-06-21T20:20:35.935Z,94887.73
2018-06-21T20:23:05.093Z,94885.88
2018-06-21T20:25:35.464Z,94880.55
2018-06-21T20:28:04.211Z,94879.73
2018-06-21T20:30:33.019Z,94875.98
2018-06-21T20:33:01.967Z,94879.98
2018-06-21T20:35:31.122Z,94876.23
2018-06-21T20:37:59.912Z,94877.31
2018-06-21T20:40:28.631Z,94880.20
2018-06-21T20:42:57.399Z,94874.09
2018-06-21T20:45:26.115Z,94866.91
2018-06-21T20:47:54.992Z,94874.09
2018-06-21T20:50:23.794Z,94863.15
2018-06-21T20:52:52.686Z,94864.48
2018-06-21T20:55:21.416Z,94865.23
2018-06-21T20:57:50.203Z,94862.05
2018-06-21T21:00:19.010Z,94865.77
2018-06-21T21:02:47.781Z,94868.94
2018-06-21T21:05:17.566Z,94865.71
2018-06-21T21:07:48.102Z,94863.58
2018-06-21T21:10:23.044Z,94869.44
2018-06-21T21:12:51.740Z,94860.91
2018-06-21T21:15:20.506Z,94853.72
2018-06-21T21:17:49.266Z,94860.91
2018-06-21T21:20:17.934Z,94850.52
2018-06-21T21:22:46.680Z,94855.85
2018-06-21T21:25:15.436Z,94855.05
2018-06-21T21:27:44.554Z,94844.90
2018-06-21T21:30:13.422Z,94849.70
2018-06-21T21:32:42.261Z,94848.89
2018-06-21T21:35:11.011Z,94849.94
2018-06-21T21:37:39.782Z,94847.80
2018-06-21T21:40:08.715Z,94850.20
2018-06-21T21:42:39.032Z,94846.47
2018-06-21T21:45:07.919Z,94846.45
2018-06-21T21:47:36.699Z,94842.97
2018-06-21T21:50:05.454Z,94842.14
2018-06-21T21:52:34.293Z,94842.13
2018-06-21T21:55:02.998Z,94840.48
2018-06-21T21:57:31.776Z,94844.22
2018-06-21T22:00:00.560Z,94842.05
2018-06-21T22:02:29.266Z,94840.36
2018-06-21T22:04:57.998Z,94844.02
2018-06-21T22:07:26.703Z,94837.89
2018-06-21T22:09:55.448Z,94839.77
2018-06-21T22:12:24.216Z,94829.42
2018-06-21T22:14:53.011Z,94827.28
2018-06-21T22:17:21.724Z,94823.56
2018-06-21T22:19:50.488Z,94826.50
2018-06-21T22:22:19.258Z,94823.02
2018-06-21T22:24:48.083Z,94821.15
2018-06-21T22:27:16.805Z,94818.75
2018-06-21T22:29:45.554Z,94816.59
2018-06-21T22:32:14.264Z,94812.60
2018-06-21T22:34:43.008Z,94809.13
2018-06-21T22:37:11.734Z,94806.48
2018-06-21T22:39:40.464Z,94812.05
2018-06-21T22:42:09.207Z,94807.54
2018-06-21T22:44:37.985Z,94805.91
2018-06-21T22:47:06.835Z,94804.34
2018-06-21T22:49:35.564Z,94805.92
2018-06-21T22:52:04.306Z,94810.19
2018-06-21T22:54:33.031Z,94808.06
2018-06-21T22:57:01.754Z,94805.94
2018-06-21T22:59:30.446Z,94805.09
2018-06-21T23:01:59.254Z,94804.55
2018-06-21T23:04:27.983Z,94809.59
2018-06-21T23:06:56.779Z,94806.11
2018-06-21T23:09:28.507Z,94809.53
2018-06-21T23:11:57.290Z,94815.63
2018-06-21T23:14:26.025Z,94806.57
2018-06-21T23:16:57.018Z,94804.16
2018-06-21T23:19:28.860Z,94805.17
2018-06-21T23:21:57.985Z,94804.84
2018-06-21T23:24:27.466Z,94803.21
2018-06-21T23:26:56.248Z,94807.70
2018-06-21T23:29:24.998Z,94801.58
2018-06-21T23:31:53.862Z,94803.96
2018-06-21T23:34:23.041Z,94802.36
2018-06-21T23:36:52.039Z,94801.05
2018-06-21T23:39:20.939Z,94799.98
2018-06-21T23:41:49.721Z,94790.64
2018-06-21T23:44:18.508Z,94791.50
2018-06-21T23:46:47.299Z,94796.53
2018-06-21T23:49:16.057Z,94791.75
2018-06-21T23:51:44.832Z,94797.59
2018-06-21T23:54:14.698Z,94790.70
2018-06-21T23:56:44.294Z,94787.50
2018-06-21T23:59:13.009Z,94785.34
